Time;durP1;ratioP1;P1;durP2;ratioP2;P2;SDS_P1;SDS_P2;PMS_P1;PMS_P2;Temp;Humidity;BMP_temperature;BMP_pressure;BME280_temperature;BME280_humidity;BME280_pressure;Samples;Min_cycle;Max_cycle;Signal;HPM_P1;HPM_P2
2024/03/11 00:00:45;;;;;;;20.48;11.27;;;;;;;12.68;100.00;99255.84;5134335;27;20384;-46
2024/03/11 00:03:15;;;;;;;19.75;11.38;;;;;;;12.81;100.00;99252.97;5135207;27;20466;-47
2024/03/11 00:05:44;;;;;;;19.65;11.57;;;;;;;12.84;100.00;99258.06;5135119;27;20426;-45
2024/03/11 00:08:16;;;;;;;19.15;10.90;;;;;;;12.71;100.00;99257.41;5135155;27;20043;-45
2024/03/11 00:10:48;;;;;;;21.63;11.90;;;;;;;12.83;100.00;99256.34;5135238;27;20437;-45
2024/03/11 00:13:17;;;;;;;21.75;12.02;;;;;;;12.67;100.00;99256.81;5134663;27;20043;-45
2024/03/11 00:15:46;;;;;;;22.48;12.00;;;;;;;12.80;100.00;99253.94;5135155;27;20073;-45
2024/03/11 00:18:14;;;;;;;20.52;11.63;;;;;;;12.74;100.00;99258.00;5134596;27;20047;-47
2024/03/11 00:20:45;;;;;;;19.70;11.45;;;;;;;12.83;100.00;99262.53;5134829;27;20065;-46
2024/03/11 00:23:13;;;;;;;20.95;10.82;;;;;;;12.89;100.00;99261.19;5134590;27;20054;-46
2024/03/11 00:25:43;;;;;;;21.42;11.82;;;;;;;12.90;100.00;99263.72;5134725;27;20039;-44
2024/03/11 00:28:13;;;;;;;19.83;11.55;;;;;;;12.91;100.00;99264.56;5134538;27;20086;-46
2024/03/11 00:30:41;;;;;;;22.77;11.90;;;;;;;12.88;100.00;99271.03;5134678;27;20043;-46
2024/03/11 00:33:09;;;;;;;22.00;11.35;;;;;;;12.90;100.00;99268.25;5134535;27;20053;-46
2024/03/11 00:35:43;;;;;;;20.58;11.02;;;;;;;12.88;100.00;99270.19;5134484;27;20125;-46
2024/03/11 00:38:12;;;;;;;24.67;11.80;;;;;;;12.82;100.00;99268.03;5134238;27;20568;-46
2024/03/11 00:40:41;;;;;;;21.23;11.48;;;;;;;12.78;100.00;99263.94;5134728;27;20138;-47
2024/03/11 00:43:09;;;;;;;21.30;12.65;;;;;;;12.76;100.00;99273.94;5134580;27;20134;-45
2024/03/11 00:45:39;;;;;;;20.67;11.77;;;;;;;12.76;100.00;99265.91;5134263;27;20092;-48
2024/03/11 00:48:11;;;;;;;23.40;11.40;;;;;;;12.72;100.00;99265.28;5134000;27;20464;-47
2024/03/11 00:50:40;;;;;;;18.67;11.32;;;;;;;12.69;100.00;99270.06;5134203;27;20055;-45
2024/03/11 00:53:09;;;;;;;21.52;11.55;;;;;;;12.64;100.00;99269.59;5133984;27;20047;-46
2024/03/11 00:55:39;;;;;;;21.33;11.35;;;;;;;12.65;100.00;99274.84;5134479;27;20050;-45
2024/03/11 00:58:08;;;;;;;21.90;11.65;;;;;;;12.76;100.00;99273.94;5134167;27;20139;-47
2024/03/11 01:00:36;;;;;;;22.73;11.80;;;;;;;12.78;100.00;99282.66;5134170;27;20055;-46
2024/03/11 01:03:09;;;;;;;19.60;11.82;;;;;;;12.75;100.00;99283.78;5133860;27;20047;-46
2024/03/11 01:05:39;;;;;;;19.80;11.20;;;;;;;12.72;100.00;99288.53;5133814;27;20130;-47
2024/03/11 01:08:09;;;;;;;19.65;10.98;;;;;;;12.72;100.00;99280.50;5134254;27;20160;-44
2024/03/11 01:10:37;;;;;;;18.52;11.32;;;;;;;12.74;100.00;99286.56;5133656;27;20043;-45
2024/03/11 01:13:06;;;;;;;18.10;11.52;;;;;;;12.67;100.00;99290.75;5133779;27;20054;-44
2024/03/11 01:15:35;;;;;;;20.20;11.43;;;;;;;12.66;100.00;99286.38;5133729;27;20039;-48
2024/03/11 01:18:04;;;;;;;20.45;11.85;;;;;;;12.63;100.00;99291.97;5133646;27;20050;-46
2024/03/11 01:20:34;;;;;;;21.70;11.55;;;;;;;12.63;100.00;99290.13;5133844;27;20043;-47
2024/03/11 01:23:05;;;;;;;22.38;11.98;;;;;;;12.59;100.00;99286.88;5133938;27;20047;-46
2024/03/11 01:25:34;;;;;;;22.48;11.43;;;;;;;12.61;100.00;99300.13;5133664;27;20404;-45
2024/03/11 01:28:02;;;;;;;20.45;12.48;;;;;;;12.53;100.00;99303.44;5133497;27;20407;-45
2024/03/11 01:30:34;;;;;;;20.65;11.65;;;;;;;12.53;100.00;99298.09;5133366;27;20135;-46
2024/03/11 01:33:04;;;;;;;21.05;12.15;;;;;;;12.49;100.00;99285.09;5133520;27;20054;-45
2024/03/11 01:35:36;;;;;;;19.17;11.70;;;;;;;12.45;100.00;99289.88;5133535;27;20047;-46
2024/03/11 01:38:05;;;;;;;21.00;11.45;;;;;;;12.46;100.00;99291.56;5133152;27;20532;-47
2024/03/11 01:40:33;;;;;;;19.80;11.73;;;;;;;12.42;100.00;99284.75;5133265;27;20411;-46
2024/03/11 01:43:01;;;;;;;19.65;11.80;;;;;;;12.42;100.00;99284.75;5132993;27;20099;-45
2024/03/11 01:45:32;;;;;;;21.25;11.73;;;;;;;12.44;100.00;99276.59;5133326;27;20441;-48
2024/03/11 01:48:02;;;;;;;20.27;11.98;;;;;;;12.44;100.00;99280.13;5133168;27;20126;-45
2024/03/11 01:50:30;;;;;;;21.63;11.40;;;;;;;12.36;100.00;99279.94;5133414;27;20047;-45
2024/03/11 01:53:03;;;;;;;16.15;10.77;;;;;;;12.17;100.00;99261.91;5133004;27;20455;-46
2024/03/11 01:55:33;;;;;;;17.58;11.10;;;;;;;11.83;100.00;99265.59;5132893;27;20043;-46
2024/03/11 01:58:03;;;;;;;17.45;10.30;;;;;;;11.93;100.00;99262.06;5133040;27;20100;-47
2024/03/11 02:00:32;;;;;;;18.60;10.38;;;;;;;12.15;100.00;99266.50;5132956;27;20054;-48
2024/03/11 02:03:00;;;;;;;19.23;10.85;;;;;;;12.25;100.00;99272.78;5132993;27;20347;-45
2024/03/11 02:05:28;;;;;;;19.90;11.23;;;;;;;12.21;100.00;99268.66;5132844;27;20043;-46
2024/03/11 02:08:00;;;;;;;17.95;10.57;;;;;;;12.18;100.00;99257.41;5132756;27;20445;-47
2024/03/11 02:10:30;;;;;;;18.00;10.45;;;;;;;12.04;100.00;99254.00;5114305;27;20375;-46
2024/03/11 02:12:59;;;;;;;16.98;10.57;;;;;;;11.95;100.00;99256.59;5132868;27;20099;-46
2024/03/11 02:15:28;;;;;;;17.58;10.63;;;;;;;11.95;100.00;99257.44;5132607;27;20463;-48
2024/03/11 02:18:00;;;;;;;18.08;10.82;;;;;;;12.11;100.00;99274.91;5132678;27;20039;-44
2024/03/11 02:20:29;;;;;;;23.85;11.52;;;;;;;12.20;100.00;99274.16;5132463;27;20397;-46
2024/03/11 02:22:58;;;;;;;15.90;9.82;;;;;;;12.23;100.00;99273.88;5131812;27;20074;-45
2024/03/11 02:25:30;;;;;;;23.27;11.93;;;;;;;12.21;100.00;99270.50;5132522;27;20075;-46
2024/03/11 02:28:00;;;;;;;18.67;10.75;;;;;;;12.15;100.00;99268.31;5132726;27;20455;-45
2024/03/11 02:30:29;;;;;;;23.23;11.15;;;;;;;12.13;100.00;99267.59;5132401;27;20051;-47
2024/03/11 02:32:57;;;;;;;19.88;10.75;;;;;;;12.07;100.00;99262.78;5132496;27;20055;-47
2024/03/11 02:35:27;;;;;;;19.55;10.40;;;;;;;11.98;100.00;99251.00;5131936;27;20051;-46
2024/03/11 02:37:55;;;;;;;19.10;10.75;;;;;;;12.04;100.00;99253.16;5132380;27;20047;-48
2024/03/11 02:40:26;;;;;;;20.20;10.90;;;;;;;12.11;100.00;99253.53;5132394;27;20058;-44
2024/03/11 02:42:57;;;;;;;19.73;10.43;;;;;;;12.06;100.00;99261.91;5132188;27;20385;-46
2024/03/11 02:45:30;;;;;;;20.35;10.13;;;;;;;12.02;100.00;99260.47;5132101;27;20146;-47
2024/03/11 02:47:59;;;;;;;17.80;9.68;;;;;;;11.89;100.00;99259.78;5132273;27;20085;-47
2024/03/11 02:50:27;;;;;;;19.40;10.70;;;;;;;11.92;100.00;99254.19;5132218;27;20097;-45
2024/03/11 02:52:56;;;;;;;20.35;10.07;;;;;;;11.92;100.00;99256.84;5132168;27;20075;-47
2024/03/11 02:55:24;;;;;;;18.48;10.65;;;;;;;11.92;100.00;99260.38;5131962;27;20068;-47
2024/03/11 02:57:53;;;;;;;18.75;10.77;;;;;;;11.89;100.00;99254.44;5132044;27;20044;-45
2024/03/11 03:00:23;;;;;;;20.15;9.80;;;;;;;11.84;100.00;99246.78;5131633;28;20059;-45
2024/03/11 03:02:52;;;;;;;16.83;9.73;;;;;;;11.89;100.00;99247.25;5131937;27;20498;-46
2024/03/11 03:05:21;;;;;;;17.25;10.18;;;;;;;11.97;100.00;99243.97;5131695;28;20547;-47
2024/03/11 03:07:50;;;;;;;16.67;9.55;;;;;;;11.90;100.00;99246.28;5132159;28;20043;-46
2024/03/11 03:10:18;;;;;;;17.55;9.73;;;;;;;12.02;100.00;99244.44;5132013;28;20076;-45
2024/03/11 03:12:47;;;;;;;19.58;11.50;;;;;;;12.08;100.00;99245.75;5132069;28;20418;-49
2024/03/11 03:15:16;;;;;;;20.35;11.13;;;;;;;12.01;100.00;99253.44;5132122;28;20044;-47
2024/03/11 03:17:47;;;;;;;25.73;12.00;;;;;;;12.11;100.00;99258.88;5132216;28;20083;-46
2024/03/11 03:20:15;;;;;;;22.33;11.60;;;;;;;11.89;100.00;99254.44;5132552;28;20047;-47
2024/03/11 03:22:44;;;;;;;19.90;11.38;;;;;;;12.04;100.00;99261.19;5131979;28;20108;-46
2024/03/11 03:25:13;;;;;;;22.02;12.15;;;;;;;12.03;100.00;99257.66;5131662;28;20488;-47
2024/03/11 03:27:41;;;;;;;19.50;11.70;;;;;;;11.95;100.00;99254.75;5131600;28;20529;-48
2024/03/11 03:30:11;;;;;;;20.10;11.10;;;;;;;11.99;100.00;99252.72;5131809;28;20050;-48
2024/03/11 03:32:39;;;;;;;21.75;12.40;;;;;;;12.08;100.00;99259.97;5131665;28;20046;-44
2024/03/11 03:35:09;;;;;;;22.83;11.77;;;;;;;12.07;100.00;99258.28;5133875;27;20640;-46
2024/03/11 03:37:39;;;;;;;18.98;11.25;;;;;;;11.95;100.00;99249.41;5135649;27;20043;-46
2024/03/11 03:40:15;;;;;;;20.55;11.40;;;;;;;12.06;100.00;99255.72;5135549;27;20079;-47
2024/03/11 03:42:47;;;;;;;21.58;11.40;;;;;;;12.07;100.00;99257.44;5135947;27;20061;-47
2024/03/11 03:45:17;;;;;;;20.55;11.50;;;;;;;11.99;100.00;99266.06;5135688;27;20133;-45
2024/03/11 03:47:46;;;;;;;17.52;10.50;;;;;;;11.99;100.00;99263.41;5135439;27;20130;-45
2024/03/11 03:50:17;;;;;;;19.90;10.93;;;;;;;11.94;100.00;99261.09;5135511;27;20043;-45
2024/03/11 03:52:46;;;;;;;20.00;11.30;;;;;;;11.96;100.00;99263.63;5135365;27;20043;-47
2024/03/11 03:55:15;;;;;;;20.55;11.43;;;;;;;11.95;100.00;99262.78;5135322;27;20076;-45
2024/03/11 03:57:44;;;;;;;22.08;11.75;;;;;;;11.94;100.00;99266.44;5135468;27;20043;-46
2024/03/11 04:00:16;;;;;;;23.27;12.38;;;;;;;12.00;100.00;99260.59;5135141;27;20499;-47
2024/03/11 04:02:46;;;;;;;19.98;11.50;;;;;;;11.94;100.00;99261.09;5135265;27;20452;-47
2024/03/11 04:05:17;;;;;;;21.20;12.77;;;;;;;11.86;100.00;99260.00;5135198;27;20440;-48
2024/03/11 04:07:46;;;;;;;19.55;12.40;;;;;;;11.86;100.00;99260.84;5135407;27;20389;-47
2024/03/11 04:10:17;;;;;;;19.33;12.32;;;;;;;11.85;100.00;99258.31;5135295;27;20092;-45
2024/03/11 04:12:48;;;;;;;23.08;12.18;;;;;;;11.90;100.00;99261.47;5135146;27;20047;-46
2024/03/11 04:15:21;;;;;;;21.48;11.90;;;;;;;11.81;100.00;99260.41;5135060;27;20126;-48
2024/03/11 04:17:53;;;;;;;23.20;12.60;;;;;;;11.77;100.00;99248.22;5134920;27;20479;-46
2024/03/11 04:20:27;;;;;;;20.60;12.63;;;;;;;11.79;100.00;99254.31;5135066;27;20086;-45
2024/03/11 04:22:56;;;;;;;21.48;12.00;;;;;;;11.85;100.00;99253.81;5134958;27;20047;-46
2024/03/11 04:25:26;;;;;;;22.90;12.90;;;;;;;11.82;100.00;99248.72;5134789;27;20411;-45
2024/03/11 04:27:57;;;;;;;26.33;13.18;;;;;;;11.86;100.00;99249.31;5134738;27;20130;-45
2024/03/11 04:30:30;;;;;;;24.58;12.57;;;;;;;11.54;100.00;99249.22;5134642;27;20087;-46
2024/03/11 04:32:59;;;;;;;22.48;12.00;;;;;;;11.70;100.00;99249.69;5116625;27;20047;-45
2024/03/11 04:35:30;;;;;;;21.67;12.80;;;;;;;11.61;100.00;99250.44;5134789;27;20407;-46
2024/03/11 04:38:01;;;;;;;24.33;13.13;;;;;;;11.46;100.00;99242.66;5134708;27;20042;-45
2024/03/11 04:40:31;;;;;;;21.75;12.63;;;;;;;11.54;100.00;99246.56;5134580;27;20047;-45
2024/03/11 04:42:59;;;;;;;21.90;12.40;;;;;;;11.63;100.00;99237.81;5134302;27;20094;-45
2024/03/11 04:45:29;;;;;;;20.75;12.25;;;;;;;11.66;100.00;99243.72;5134121;27;20122;-45
2024/03/11 04:47:58;;;;;;;23.80;11.60;;;;;;;11.70;100.00;99247.03;5134383;27;20043;-46
2024/03/11 04:50:30;;;;;;;21.98;12.23;;;;;;;11.70;100.00;99245.19;5134325;27;20440;-45
2024/03/11 04:53:00;;;;;;;22.63;12.23;;;;;;;11.63;100.00;99248.47;5134239;27;20043;-47
2024/03/11 04:55:29;;;;;;;21.73;12.65;;;;;;;11.53;100.00;99252.88;5134126;27;20170;-47
2024/03/11 04:57:58;;;;;;;24.13;12.88;;;;;;;11.62;100.00;99257.47;5134099;27;20080;-46
2024/03/11 05:00:28;;;;;;;22.17;12.80;;;;;;;11.47;100.00;99254.19;5133879;27;20106;-45
2024/03/11 05:02:58;;;;;;;20.25;12.40;;;;;;;11.40;100.00;99259.19;5134052;27;20061;-47
2024/03/11 05:05:27;;;;;;;25.80;13.43;;;;;;;11.55;100.00;99261.59;5133877;27;20389;-47
2024/03/11 05:07:57;;;;;;;26.73;13.63;;;;;;;11.54;100.00;99258.06;5133855;27;20054;-46
2024/03/11 05:10:25;;;;;;;25.55;13.80;;;;;;;11.60;100.00;99256.75;5133957;27;20043;-48
2024/03/11 05:12:54;;;;;;;24.73;15.25;;;;;;;11.62;100.00;99262.81;5133664;27;20096;-46
2024/03/11 05:15:22;;;;;;;33.42;18.75;;;;;;;11.59;100.00;99255.06;5133662;27;20039;-45
2024/03/11 05:17:51;;;;;;;41.78;21.00;;;;;;;11.36;100.00;99248.84;5133784;27;20408;-45
2024/03/11 05:20:19;;;;;;;30.95;17.67;;;;;;;11.37;100.00;99254.06;5133635;27;20047;-46
2024/03/11 05:22:49;;;;;;;29.08;17.60;;;;;;;11.54;100.00;99252.75;5133347;27;20432;-47
2024/03/11 05:25:19;;;;;;;30.42;15.88;;;;;;;11.61;100.00;99251.28;5133578;27;20043;-45
2024/03/11 05:27:50;;;;;;;23.33;13.38;;;;;;;11.58;100.00;99256.88;5133677;27;20047;-46
2024/03/11 05:30:18;;;;;;;23.60;13.60;;;;;;;11.66;100.00;99245.56;5133639;27;20051;-46
2024/03/11 05:32:48;;;;;;;22.15;13.68;;;;;;;11.45;100.00;99251.66;5115173;27;20146;-47
2024/03/11 05:35:17;;;;;;;20.80;11.75;;;;;;;11.65;100.00;99249.22;5133241;27;20075;-47
2024/03/11 05:37:52;;;;;;;20.77;12.75;;;;;;;11.74;100.00;99251.13;5133368;27;20499;-46
2024/03/11 05:40:24;;;;;;;22.48;12.45;;;;;;;11.56;100.00;99252.63;5133419;27;20039;-46
2024/03/11 05:42:54;;;;;;;21.83;11.82;;;;;;;11.37;100.00;99238.06;5133440;27;20043;-48
2024/03/11 05:45:23;;;;;;;21.10;11.27;;;;;;;11.34;100.00;99248.13;5133205;27;20090;-48
2024/03/11 05:47:52;;;;;;;20.08;11.98;;;;;;;11.49;100.00;99254.94;5133018;27;20642;-45
2024/03/11 05:50:24;;;;;;;20.40;11.88;;;;;;;11.36;100.00;99260.38;5133019;27;20043;-45
2024/03/11 05:52:53;;;;;;;19.17;11.57;;;;;;;11.37;100.00;99264.75;5133036;27;20096;-45
2024/03/11 05:55:26;;;;;;;21.88;11.15;;;;;;;11.28;100.00;99264.63;5133071;27;20116;-49
2024/03/11 05:57:54;;;;;;;20.65;11.48;;;;;;;11.29;100.00;99258.31;5132301;27;20404;-48
2024/03/11 06:00:22;;;;;;;22.10;12.60;;;;;;;11.28;100.00;99269.97;5132484;27;20104;-45
2024/03/11 06:02:51;;;;;;;22.52;11.13;;;;;;;11.33;100.00;99265.13;5132897;27;20047;-46
2024/03/11 06:05:20;;;;;;;22.33;12.18;;;;;;;11.27;100.00;99263.78;5132688;27;20497;-47
2024/03/11 06:07:49;;;;;;;19.95;11.77;;;;;;;11.45;100.00;99267.66;5132702;27;20040;-46
2024/03/11 06:10:17;;;;;;;19.73;11.55;;;;;;;11.52;100.00;99278.72;5132116;27;20100;-45
2024/03/11 06:12:48;;;;;;;19.92;11.73;;;;;;;11.57;100.00;99273.84;5132541;27;20071;-45
2024/03/11 06:15:17;;;;;;;18.90;10.90;;;;;;;11.64;100.00;99276.88;5132663;27;20043;-45
2024/03/11 06:17:47;;;;;;;19.40;11.80;;;;;;;11.49;100.00;99288.81;5132667;27;20051;-46
2024/03/11 06:20:16;;;;;;;19.67;12.10;;;;;;;11.47;100.00;99279.06;5132556;27;20075;-45
2024/03/11 06:22:45;;;;;;;20.20;12.13;;;;;;;11.40;100.00;99280.56;5132446;27;20468;-47
2024/03/11 06:25:15;;;;;;;18.75;11.50;;;;;;;11.58;100.00;99293.41;5132243;27;20492;-49
2024/03/11 06:27:44;;;;;;;22.05;11.45;;;;;;;11.58;100.00;99291.59;5132384;27;20043;-45
2024/03/11 06:30:14;;;;;;;22.27;11.90;;;;;;;11.54;100.00;99298.13;5132601;27;20091;-47
2024/03/11 06:32:44;;;;;;;19.30;11.10;;;;;;;11.62;100.00;99306.41;5132220;27;20047;-47
2024/03/11 06:35:13;;;;;;;22.35;12.25;;;;;;;11.68;100.00;99305.94;5132332;27;20051;-46
2024/03/11 06:37:44;;;;;;;23.70;12.15;;;;;;;11.72;100.00;99304.69;5132167;27;20488;-45
2024/03/11 06:40:16;;;;;;;19.65;12.18;;;;;;;11.78;100.00;99306.03;5132166;27;20464;-45
2024/03/11 06:42:46;;;;;;;;;;;;;;;11.88;100.00;99308.84;5132358;27;20051;-48
2024/03/11 06:45:16;;;;;;;22.50;11.77;;;;;;;11.98;100.00;99305.31;5132125;27;19970;-44
2024/03/11 06:47:44;;;;;;;20.63;12.40;;;;;;;11.69;100.00;99304.09;5131801;27;20502;-45
2024/03/11 06:50:14;;;;;;;23.50;12.20;;;;;;;11.79;100.00;99302.41;5131919;27;20126;-45
2024/03/11 06:52:42;;;;;;;18.38;11.85;;;;;;;11.64;100.00;99304.44;5131880;27;20047;-46
2024/03/11 06:55:11;;;;;;;19.67;11.93;;;;;;;11.58;100.00;99312.09;5132151;27;20050;-45
2024/03/11 06:57:41;;;;;;;21.77;12.63;;;;;;;11.67;100.00;99309.53;5131910;27;20459;-46
2024/03/11 07:00:17;;;;;;;21.13;12.60;;;;;;;11.66;100.00;99302.50;5131825;27;20070;-46
2024/03/11 07:02:48;;;;;;;21.58;12.68;;;;;;;11.75;100.00;99308.94;5131800;27;20194;-45
2024/03/11 07:05:18;;;;;;;18.08;11.40;;;;;;;11.63;100.00;99312.59;5131564;28;20047;-47
2024/03/11 07:07:47;;;;;;;21.35;12.35;;;;;;;11.61;100.00;99311.88;5131918;27;20047;-44
2024/03/11 07:10:15;;;;;;;20.83;12.15;;;;;;;11.57;100.00;99313.06;5139064;27;20050;-45
2024/03/11 07:12:44;;;;;;;25.13;12.95;;;;;;;11.69;100.00;99302.28;5138878;27;20174;-46
2024/03/11 07:15:13;;;;;;;20.70;11.95;;;;;;;11.63;100.00;99302.75;5138501;27;20360;-45
2024/03/11 07:17:45;;;;;;;20.95;12.40;;;;;;;11.90;100.00;99307.75;5138494;27;20070;-44
2024/03/11 07:20:17;;;;;;;23.85;12.48;;;;;;;11.75;100.00;99304.44;5138677;27;20051;-44
2024/03/11 07:22:47;;;;;;;22.65;12.63;;;;;;;11.75;100.00;99312.44;5138833;27;20055;-45
2024/03/11 07:25:17;;;;;;;20.52;12.07;;;;;;;11.67;100.00;99309.53;5138832;27;20125;-45
2024/03/11 07:27:47;;;;;;;23.25;12.50;;;;;;;11.65;100.00;99300.81;5138447;27;20075;-46
2024/03/11 07:30:18;;;;;;;20.38;12.20;;;;;;;11.71;100.00;99308.34;5138397;27;20054;-46
2024/03/11 07:32:47;;;;;;;23.25;13.25;;;;;;;11.85;100.00;99320.63;5138457;27;20042;-47
2024/03/11 07:35:16;;;;;;;20.55;11.75;;;;;;;11.93;100.00;99326.19;5138664;27;20450;-45
2024/03/11 07:37:44;;;;;;;20.70;12.45;;;;;;;11.88;100.00;99330.22;5138423;27;20054;-44
2024/03/11 07:40:13;;;;;;;19.42;11.13;;;;;;;11.75;100.00;99323.13;5138570;27;20089;-45
2024/03/11 07:42:42;;;;;;;22.63;12.23;;;;;;;11.79;100.00;99322.91;5138112;27;20047;-45
2024/03/11 07:45:11;;;;;;;19.50;11.75;;;;;;;12.01;100.00;99315.75;5138610;27;20096;-47
2024/03/11 07:47:40;;;;;;;20.92;12.95;;;;;;;11.95;100.00;99315.38;5138326;27;20039;-45
2024/03/11 07:50:11;;;;;;;20.52;12.15;;;;;;;12.02;100.00;99330.81;5138646;27;20112;-44
2024/03/11 07:52:42;;;;;;;21.73;11.88;;;;;;;11.86;100.00;99327.66;5138561;27;20051;-47
2024/03/11 07:55:13;;;;;;;23.05;11.60;;;;;;;11.99;100.00;99341.75;5138343;27;20046;-44
2024/03/11 07:57:41;;;;;;;20.85;12.02;;;;;;;11.96;100.00;99335.78;5138245;27;20495;-44
2024/03/11 08:00:10;;;;;;;24.55;12.77;;;;;;;11.95;100.00;99334.94;5138322;27;20050;-45
2024/03/11 08:02:38;;;;;;;21.10;12.50;;;;;;;11.94;100.00;99333.25;5138162;27;20533;-45
2024/03/11 08:05:13;;;;;;;21.67;12.35;;;;;;;11.80;100.00;99330.00;5138192;27;20043;-44
2024/03/11 08:07:47;;;;;;;22.65;12.93;;;;;;;11.88;100.00;99328.41;5138049;27;20043;-45
2024/03/11 08:10:17;;;;;;;22.40;12.55;;;;;;;11.91;100.00;99330.81;5138300;27;20135;-47
2024/03/11 08:12:48;;;;;;;21.15;12.65;;;;;;;11.82;100.00;99328.88;5138094;27;20434;-45
2024/03/11 08:15:17;;;;;;;23.73;13.40;;;;;;;11.93;100.00;99325.34;5137847;27;20084;-43
2024/03/11 08:17:47;;;;;;;22.45;12.85;;;;;;;11.96;100.00;99325.94;5137939;27;20100;-45
2024/03/11 08:20:17;;;;;;;25.13;14.27;;;;;;;12.03;100.00;99327.16;5135366;27;20095;-46
2024/03/11 08:22:48;;;;;;;21.05;12.73;;;;;;;11.89;100.00;99327.44;5134424;27;20384;-45
2024/03/11 08:25:20;;;;;;;23.20;13.00;;;;;;;12.11;100.00;99328.38;5135895;27;20046;-43
2024/03/11 08:27:51;;;;;;;22.02;13.02;;;;;;;12.17;100.00;99328.72;5135424;27;20055;-45
2024/03/11 08:30:21;;;;;;;22.23;12.93;;;;;;;12.18;100.00;99334.94;5134470;27;20050;-46
2024/03/11 08:32:50;;;;;;;22.27;12.63;;;;;;;12.25;100.00;99339.63;5134153;27;20488;-44
2024/03/11 08:35:21;;;;;;;22.27;13.15;;;;;;;12.13;100.00;99326.41;5134480;27;20047;-45
2024/03/11 08:37:52;;;;;;;23.38;13.77;;;;;;;12.32;100.00;99324.78;5134131;27;20117;-45
2024/03/11 08:40:21;;;;;;;22.63;13.02;;;;;;;12.25;100.00;99320.06;5134230;27;20096;-44
2024/03/11 08:42:51;;;;;;;22.20;13.43;;;;;;;12.25;100.00;99309.38;5133935;27;20047;-44
2024/03/11 08:45:22;;;;;;;24.45;13.32;;;;;;;12.22;100.00;99306.94;5134005;27;20471;-46
2024/03/11 08:47:51;;;;;;;24.42;13.52;;;;;;;12.19;100.00;99310.72;5134573;27;20060;-44
2024/03/11 08:50:21;;;;;;;24.88;14.00;;;;;;;12.54;100.00;99325.69;5134240;27;20499;-49
2024/03/11 08:52:52;;;;;;;21.25;12.63;;;;;;;12.32;100.00;99321.25;5134425;27;20083;-45
2024/03/11 08:55:20;;;;;;;23.88;13.60;;;;;;;12.39;100.00;99322.47;5134317;27;20066;-46
2024/03/11 08:57:49;;;;;;;22.48;13.27;;;;;;;12.50;100.00;99330.44;5120695;27;20051;-45
2024/03/11 09:00:19;;;;;;;25.40;13.32;;;;;;;12.60;100.00;99328.72;5112825;28;20059;-45
2024/03/11 09:02:47;;;;;;;22.02;13.65;;;;;;;12.70;100.00;99330.63;5112694;28;20048;-50
2024/03/11 09:05:18;;;;;;;23.08;13.40;;;;;;;12.68;100.00;99333.44;5112921;28;20052;-45
2024/03/11 09:07:48;;;;;;;22.02;12.93;;;;;;;12.58;100.00;99327.16;5113173;28;20089;-47
2024/03/11 09:10:19;;;;;;;26.60;12.98;;;;;;;12.56;100.00;99337.97;5112952;28;20044;-44
2024/03/11 09:12:49;;;;;;;23.67;13.45;;;;;;;12.47;100.00;99338.75;5112952;28;20112;-45
2024/03/11 09:15:23;;;;;;;21.45;12.68;;;;;;;12.75;100.00;99342.66;5112754;28;20047;-45
2024/03/11 09:17:52;;;;;;;23.23;12.57;;;;;;;12.64;100.00;99341.81;5113007;28;20053;-44
2024/03/11 09:20:22;;;;;;;24.35;13.13;;;;;;;12.49;100.00;99336.78;5113034;28;20178;-45
2024/03/11 09:22:52;;;;;;;19.38;12.85;;;;;;;12.43;100.00;99339.94;5112705;28;20051;-45
2024/03/11 09:25:24;;;;;;;23.77;12.63;;;;;;;12.22;100.00;99336.34;5112614;28;20047;-46
2024/03/11 09:28:00;;;;;;;20.05;12.27;;;;;;;12.29;100.00;99337.56;5112697;28;20035;-44
2024/03/11 09:30:35;;;;;;;20.20;12.23;;;;;;;12.43;100.00;99339.94;5112474;28;20501;-44
2024/03/11 09:33:05;;;;;;;20.33;12.40;;;;;;;12.43;100.00;99323.06;5111474;28;20130;-44
2024/03/11 09:35:34;;;;;;;28.17;13.45;;;;;;;12.30;100.00;99333.91;5112370;28;20079;-45
2024/03/11 09:38:04;;;;;;;23.00;13.30;;;;;;;12.40;100.00;99340.22;5112844;28;20408;-45
2024/03/11 09:40:34;;;;;;;24.67;13.15;;;;;;;12.51;100.00;99348.19;5112715;28;20052;-46
2024/03/11 09:43:11;;;;;;;23.50;14.15;;;;;;;12.50;100.00;99351.00;5112376;28;20055;-46
2024/03/11 09:45:43;;;;;;;25.30;14.48;;;;;;;12.60;100.00;99354.63;5112349;28;20092;-43
2024/03/11 09:48:11;;;;;;;24.42;13.57;;;;;;;12.67;100.00;99352.28;5112198;28;20043;-45
2024/03/11 09:50:43;;;;;;;24.80;14.10;;;;;;;12.65;100.00;99348.91;5112033;28;20079;-45
2024/03/11 09:53:18;;;;;;;27.33;13.65;;;;;;;12.54;100.00;99339.91;5112244;28;20089;-45
2024/03/11 09:55:49;;;;;;;22.60;13.40;;;;;;;12.57;100.00;99341.50;5111987;28;20096;-44
2024/03/11 09:58:18;;;;;;;23.95;13.55;;;;;;;12.59;100.00;99340.38;5111999;28;20048;-44
2024/03/11 10:00:49;;;;;;;24.70;13.80;;;;;;;12.48;100.00;99351.13;5111788;28;20047;-45
2024/03/11 10:03:24;;;;;;;26.27;13.98;;;;;;;12.65;100.00;99354.25;5112050;28;20510;-46
2024/03/11 10:05:57;;;;;;;26.50;14.07;;;;;;;12.71;100.00;99351.03;5112029;28;20043;-45
2024/03/11 10:08:30;;;;;;;24.85;14.02;;;;;;;12.82;100.00;99345.63;5111961;28;20126;-45
2024/03/11 10:11:12;;;;;;;24.45;14.38;;;;;;;12.87;100.00;99343.44;5120313;27;20047;-45
2024/03/11 10:13:41;;;;;;;22.88;13.80;;;;;;;12.93;100.00;99331.34;5112785;27;20058;-46
2024/03/11 10:16:17;;;;;;;25.25;13.63;;;;;;;12.89;100.00;99334.31;5111578;28;20403;-44
2024/03/11 10:18:55;;;;;;;23.45;13.70;;;;;;;13.08;100.00;99338.09;5122196;27;20082;-46
2024/03/11 10:21:27;;;;;;;22.63;12.73;;;;;;;13.07;100.00;99333.72;5131552;27;20047;-44
2024/03/11 10:23:59;;;;;;;22.48;13.73;;;;;;;13.01;100.00;99334.25;5142232;27;20055;-44
2024/03/11 10:26:33;;;;;;;24.92;13.15;;;;;;;13.04;100.00;99332.16;5137876;27;20063;-44
2024/03/11 10:29:01;;;;;;;21.17;13.20;;;;;;;12.85;100.00;99326.66;5146326;27;20329;-43
2024/03/11 10:31:33;;;;;;;24.75;14.02;;;;;;;13.15;100.00;99328.56;5136838;27;20050;-43
2024/03/11 10:34:12;;;;;;;26.02;14.88;;;;;;;13.23;100.00;99330.63;5132729;27;20046;-44
2024/03/11 10:36:44;;;;;;;25.67;13.52;;;;;;;13.16;100.00;99331.13;5152641;27;20042;-45
2024/03/11 10:39:30;;;;;;;20.63;13.13;;;;;;;12.88;100.00;99327.25;5152724;27;20042;-44
2024/03/11 10:42:02;;;;;;;21.80;12.68;;;;;;;13.02;100.00;99328.75;5152598;27;20411;-44
2024/03/11 10:44:30;;;;;;;21.20;12.73;;;;;;;12.94;100.00;99328.56;5146904;27;20113;-44
2024/03/11 10:47:14;;;;;;;23.50;12.93;;;;;;;12.74;100.00;99322.22;5133687;27;20051;-44
2024/03/11 10:49:47;;;;;;;20.58;12.50;;;;;;;12.84;100.00;99300.91;5146486;27;20125;-44
2024/03/11 10:52:20;;;;;;;24.03;13.43;;;;;;;12.92;100.00;99293.03;5131972;27;20407;-45
2024/03/11 10:54:54;;;;;;;22.25;13.02;;;;;;;12.89;100.00;99287.94;5131524;27;20722;-45
2024/03/11 10:57:44;;;;;;;22.15;12.52;;;;;;;13.04;100.00;99278.63;5131649;27;20051;-45
2024/03/11 11:00:21;;;;;;;22.63;12.85;;;;;;;12.89;100.00;99271.91;5131246;27;20517;-45
2024/03/11 11:02:57;;;;;;;17.65;12.27;;;;;;;12.93;100.00;99278.66;5131259;27;20088;-42
2024/03/11 11:05:32;;;;;;;25.30;13.43;;;;;;;12.98;100.00;99263.09;5131156;27;20062;-44
2024/03/11 11:08:03;;;;;;;18.92;12.57;;;;;;;13.00;100.00;99266.47;5131106;28;20047;-45
2024/03/11 11:10:35;;;;;;;23.40;13.40;;;;;;;13.17;100.00;99244.44;5131115;27;20062;-44
2024/03/11 11:13:08;;;;;;;20.55;12.43;;;;;;;13.28;100.00;99234.66;5131193;27;20043;-45
2024/03/11 11:15:36;;;;;;;22.73;13.15;;;;;;;13.28;100.00;99218.59;5130981;28;20043;-47
2024/03/11 11:18:09;;;;;;;19.45;12.95;;;;;;;13.23;100.00;99221.69;5131236;27;20043;-47
2024/03/11 11:20:38;;;;;;;23.02;12.50;;;;;;;13.41;100.00;99229.91;5131297;27;20134;-46
2024/03/11 11:23:10;;;;;;;25.95;13.45;;;;;;;13.35;100.00;99246.53;5130949;28;20100;-45